Westport, Oklahoma
Current Conditions -  °F | °C
As of 8:55 PM on Sunday 23 Nov 2014 (Local Time) from KOWP Reporting Station
Light Rain Light Rain  
Wind Chill: 40°   Ceiling: 2200
Heat Index: 46°   Visibility: 7mi
Dew Point: 42°   Wind: 12mph
Humidity: 86%   Direction: 320°NW
Pressure: 29.6"   Gusts: 24mph
Location:  36.248°N, 96.4789°W
Report Text: KOWP 240255Z AUTO 32010G21KT 280V350 7SM -RA SCT016 BKN022 OVC034 08/06 A2960 RMK AO2 T00770055
Loading
Personal Weather Stations






























Interactive Weather Map New forecast layout! Learn more

10-Day Weather Forecast

Advertisements
Track Severe Weather on mobile